sensor_id;sensor_type;location;lat;lon;timestamp;P1;durP1;ratioP1;P2;durP2;ratioP2
67500;SDS011;54349;52.528;19.760;2022-09-06T00:01:08;2.20;;;1.30;;
67500;SDS011;54349;52.528;19.760;2022-09-06T00:03:41;1.80;;;1.40;;
67500;SDS011;54349;52.528;19.760;2022-09-06T00:06:13;1.90;;;1.40;;
67500;SDS011;54349;52.528;19.760;2022-09-06T00:08:43;2.20;;;1.40;;
67500;SDS011;54349;52.528;19.760;2022-09-06T00:11:13;1.40;;;1.20;;
67500;SDS011;54349;52.528;19.760;2022-09-06T00:13:43;1.80;;;1.30;;
67500;SDS011;54349;52.528;19.760;2022-09-06T00:16:18;2.00;;;1.40;;
67500;SDS011;54349;52.528;19.760;2022-09-06T00:18:56;1.80;;;1.40;;
67500;SDS011;54349;52.528;19.760;2022-09-06T00:21:27;1.40;;;1.30;;
67500;SDS011;54349;52.528;19.760;2022-09-06T00:23:57;1.90;;;1.40;;
67500;SDS011;54349;52.528;19.760;2022-09-06T00:26:25;2.10;;;1.40;;
67500;SDS011;54349;52.528;19.760;2022-09-06T00:28:54;1.40;;;1.30;;
67500;SDS011;54349;52.528;19.760;2022-09-06T00:31:24;2.00;;;1.40;;
67500;SDS011;54349;52.528;19.760;2022-09-06T00:33:53;1.70;;;1.30;;
67500;SDS011;54349;52.528;19.760;2022-09-06T00:36:22;2.10;;;1.30;;
67500;SDS011;54349;52.528;19.760;2022-09-06T00:38:50;2.50;;;1.50;;
67500;SDS011;54349;52.528;19.760;2022-09-06T00:41:18;2.10;;;1.50;;
67500;SDS011;54349;52.528;19.760;2022-09-06T00:43:47;2.00;;;1.20;;
67500;SDS011;54349;52.528;19.760;2022-09-06T00:46:21;1.70;;;1.20;;
67500;SDS011;54349;52.528;19.760;2022-09-06T00:48:56;2.30;;;1.40;;
67500;SDS011;54349;52.528;19.760;2022-09-06T00:51:29;1.90;;;1.20;;
67500;SDS011;54349;52.528;19.760;2022-09-06T00:54:03;1.60;;;1.40;;
67500;SDS011;54349;52.528;19.760;2022-09-06T00:56:36;1.60;;;1.30;;
67500;SDS011;54349;52.528;19.760;2022-09-06T00:59:07;1.60;;;1.30;;
67500;SDS011;54349;52.528;19.760;2022-09-06T01:01:35;2.80;;;1.40;;
67500;SDS011;54349;52.528;19.760;2022-09-06T01:04:04;2.10;;;1.30;;
67500;SDS011;54349;52.528;19.760;2022-09-06T01:07:05;2.00;;;1.60;;
67500;SDS011;54349;52.528;19.760;2022-09-06T01:15:56;2.00;;;1.30;;
67500;SDS011;54349;52.528;19.760;2022-09-06T01:30:18;1.30;;;1.20;;
67500;SDS011;54349;52.528;19.760;2022-09-06T01:33:08;2.30;;;1.20;;
67500;SDS011;54349;52.528;19.760;2022-09-06T01:36:02;3.30;;;1.40;;
67500;SDS011;54349;52.528;19.760;2022-09-06T01:38:34;2.70;;;1.50;;
67500;SDS011;54349;52.528;19.760;2022-09-06T01:41:02;2.50;;;1.50;;
67500;SDS011;54349;52.528;19.760;2022-09-06T01:43:35;2.80;;;1.50;;
67500;SDS011;54349;52.528;19.760;2022-09-06T01:52:10;1.70;;;1.40;;
67500;SDS011;54349;52.528;19.760;2022-09-06T01:55:10;2.20;;;1.60;;
67500;SDS011;54349;52.528;19.760;2022-09-06T02:01:20;1.80;;;1.40;;
67500;SDS011;54349;52.528;19.760;2022-09-06T02:04:20;2.40;;;1.50;;
67500;SDS011;54349;52.528;19.760;2022-09-06T02:06:58;1.40;;;1.30;;
67500;SDS011;54349;52.528;19.760;2022-09-06T02:09:33;2.10;;;1.40;;
67500;SDS011;54349;52.528;19.760;2022-09-06T02:12:05;2.20;;;1.40;;
67500;SDS011;54349;52.528;19.760;2022-09-06T02:14:46;2.20;;;1.50;;
67500;SDS011;54349;52.528;19.760;2022-09-06T02:17:25;2.50;;;1.50;;
67500;SDS011;54349;52.528;19.760;2022-09-06T02:20:19;1.80;;;1.30;;
67500;SDS011;54349;52.528;19.760;2022-09-06T02:22:52;2.10;;;1.40;;
67500;SDS011;54349;52.528;19.760;2022-09-06T02:25:26;2.10;;;1.50;;
67500;SDS011;54349;52.528;19.760;2022-09-06T02:28:01;2.30;;;1.50;;
67500;SDS011;54349;52.528;19.760;2022-09-06T02:30:32;2.00;;;1.50;;
67500;SDS011;54349;52.528;19.760;2022-09-06T02:33:07;2.20;;;1.30;;
67500;SDS011;54349;52.528;19.760;2022-09-06T02:35:45;2.60;;;1.40;;
67500;SDS011;54349;52.528;19.760;2022-09-06T02:38:17;1.90;;;1.40;;
67500;SDS011;54349;52.528;19.760;2022-09-06T02:40:49;2.00;;;1.40;;
67500;SDS011;54349;52.528;19.760;2022-09-06T02:43:20;2.50;;;1.50;;
67500;SDS011;54349;52.528;19.760;2022-09-06T02:45:48;2.40;;;1.40;;
67500;SDS011;54349;52.528;19.760;2022-09-06T02:48:16;1.80;;;1.40;;
67500;SDS011;54349;52.528;19.760;2022-09-06T02:50:44;1.60;;;1.30;;
67500;SDS011;54349;52.528;19.760;2022-09-06T02:53:14;3.20;;;1.50;;
67500;SDS011;54349;52.528;19.760;2022-09-06T02:55:45;3.50;;;1.50;;
67500;SDS011;54349;52.528;19.760;2022-09-06T02:58:15;2.10;;;1.60;;
67500;SDS011;54349;52.528;19.760;2022-09-06T03:00:43;2.70;;;1.40;;
67500;SDS011;54349;52.528;19.760;2022-09-06T03:03:11;2.50;;;1.60;;
67500;SDS011;54349;52.528;19.760;2022-09-06T03:05:40;2.80;;;1.60;;
67500;SDS011;54349;52.528;19.760;2022-09-06T03:08:12;3.00;;;1.70;;
67500;SDS011;54349;52.528;19.760;2022-09-06T03:10:40;2.80;;;1.50;;
67500;SDS011;54349;52.528;19.760;2022-09-06T03:13:08;1.70;;;1.30;;
67500;SDS011;54349;52.528;19.760;2022-09-06T03:15:37;2.70;;;1.60;;
67500;SDS011;54349;52.528;19.760;2022-09-06T03:18:05;2.00;;;1.50;;
67500;SDS011;54349;52.528;19.760;2022-09-06T03:20:33;2.10;;;1.40;;
67500;SDS011;54349;52.528;19.760;2022-09-06T03:23:03;1.60;;;1.40;;
67500;SDS011;54349;52.528;19.760;2022-09-06T03:25:32;2.40;;;1.50;;
67500;SDS011;54349;52.528;19.760;2022-09-06T03:28:01;2.80;;;1.60;;
67500;SDS011;54349;52.528;19.760;2022-09-06T03:30:30;2.70;;;1.60;;
67500;SDS011;54349;52.528;19.760;2022-09-06T03:32:58;2.80;;;1.60;;
67500;SDS011;54349;52.528;19.760;2022-09-06T03:35:29;2.50;;;1.60;;
67500;SDS011;54349;52.528;19.760;2022-09-06T03:37:57;2.80;;;1.60;;
67500;SDS011;54349;52.528;19.760;2022-09-06T03:40:25;2.30;;;1.60;;
67500;SDS011;54349;52.528;19.760;2022-09-06T03:42:53;2.50;;;1.50;;
67500;SDS011;54349;52.528;19.760;2022-09-06T03:45:21;2.40;;;1.60;;
67500;SDS011;54349;52.528;19.760;2022-09-06T03:47:49;2.70;;;1.70;;
67500;SDS011;54349;52.528;19.760;2022-09-06T03:50:17;2.00;;;1.50;;
67500;SDS011;54349;52.528;19.760;2022-09-06T03:52:45;2.30;;;1.60;;
67500;SDS011;54349;52.528;19.760;2022-09-06T03:55:14;3.20;;;1.60;;
67500;SDS011;54349;52.528;19.760;2022-09-06T03:57:42;2.20;;;1.60;;
67500;SDS011;54349;52.528;19.760;2022-09-06T04:00:10;3.60;;;1.70;;
67500;SDS011;54349;52.528;19.760;2022-09-06T04:02:39;2.70;;;1.50;;
67500;SDS011;54349;52.528;19.760;2022-09-06T04:05:08;2.50;;;1.50;;
67500;SDS011;54349;52.528;19.760;2022-09-06T04:07:36;2.80;;;1.40;;
67500;SDS011;54349;52.528;19.760;2022-09-06T04:10:05;3.10;;;1.50;;
67500;SDS011;54349;52.528;19.760;2022-09-06T04:12:33;2.40;;;1.50;;
67500;SDS011;54349;52.528;19.760;2022-09-06T04:15:02;3.00;;;1.50;;
67500;SDS011;54349;52.528;19.760;2022-09-06T04:17:31;2.50;;;1.50;;
67500;SDS011;54349;52.528;19.760;2022-09-06T04:19:59;2.30;;;1.50;;
67500;SDS011;54349;52.528;19.760;2022-09-06T04:22:27;2.90;;;1.60;;
67500;SDS011;54349;52.528;19.760;2022-09-06T04:24:55;2.40;;;1.40;;
67500;SDS011;54349;52.528;19.760;2022-09-06T04:27:24;2.10;;;1.60;;
67500;SDS011;54349;52.528;19.760;2022-09-06T04:29:53;2.00;;;1.50;;
67500;SDS011;54349;52.528;19.760;2022-09-06T04:32:22;2.40;;;1.50;;
67500;SDS011;54349;52.528;19.760;2022-09-06T04:34:50;2.30;;;1.60;;
67500;SDS011;54349;52.528;19.760;2022-09-06T04:37:18;2.40;;;1.50;;
67500;SDS011;54349;52.528;19.760;2022-09-06T04:39:47;2.60;;;1.70;;
67500;SDS011;54349;52.528;19.760;2022-09-06T04:42:15;2.20;;;1.50;;
67500;SDS011;54349;52.528;19.760;2022-09-06T04:44:43;2.00;;;1.40;;
67500;SDS011;54349;52.528;19.760;2022-09-06T04:47:13;2.00;;;1.50;;
67500;SDS011;54349;52.528;19.760;2022-09-06T04:49:43;1.90;;;1.40;;
67500;SDS011;54349;52.528;19.760;2022-09-06T04:52:12;2.00;;;1.50;;
67500;SDS011;54349;52.528;19.760;2022-09-06T04:54:41;2.60;;;1.60;;
67500;SDS011;54349;52.528;19.760;2022-09-06T04:57:10;2.50;;;1.40;;
67500;SDS011;54349;52.528;19.760;2022-09-06T04:59:38;2.90;;;1.60;;
67500;SDS011;54349;52.528;19.760;2022-09-06T05:02:06;2.20;;;1.70;;
67500;SDS011;54349;52.528;19.760;2022-09-06T05:04:34;1.50;;;1.40;;
67500;SDS011;54349;52.528;19.760;2022-09-06T05:07:04;3.00;;;1.60;;
67500;SDS011;54349;52.528;19.760;2022-09-06T05:09:35;1.90;;;1.50;;
67500;SDS011;54349;52.528;19.760;2022-09-06T05:12:03;3.30;;;1.50;;
67500;SDS011;54349;52.528;19.760;2022-09-06T05:14:31;2.10;;;1.40;;
67500;SDS011;54349;52.528;19.760;2022-09-06T05:17:00;2.70;;;1.50;;
67500;SDS011;54349;52.528;19.760;2022-09-06T05:19:28;3.40;;;1.50;;
67500;SDS011;54349;52.528;19.760;2022-09-06T05:21:56;2.70;;;1.40;;
67500;SDS011;54349;52.528;19.760;2022-09-06T05:24:24;2.90;;;1.60;;
67500;SDS011;54349;52.528;19.760;2022-09-06T05:26:53;2.90;;;1.60;;
67500;SDS011;54349;52.528;19.760;2022-09-06T05:29:21;3.90;;;1.80;;
67500;SDS011;54349;52.528;19.760;2022-09-06T05:31:49;2.20;;;1.60;;
67500;SDS011;54349;52.528;19.760;2022-09-06T05:34:17;3.20;;;1.50;;
67500;SDS011;54349;52.528;19.760;2022-09-06T05:36:45;3.10;;;1.70;;
67500;SDS011;54349;52.528;19.760;2022-09-06T05:39:13;3.80;;;1.80;;
67500;SDS011;54349;52.528;19.760;2022-09-06T05:41:42;3.00;;;1.60;;
67500;SDS011;54349;52.528;19.760;2022-09-06T05:44:10;2.90;;;1.60;;
67500;SDS011;54349;52.528;19.760;2022-09-06T05:46:43;2.40;;;1.50;;
67500;SDS011;54349;52.528;19.760;2022-09-06T05:49:12;2.10;;;1.40;;
67500;SDS011;54349;52.528;19.760;2022-09-06T05:51:40;3.10;;;1.70;;
67500;SDS011;54349;52.528;19.760;2022-09-06T05:54:11;3.00;;;1.70;;
67500;SDS011;54349;52.528;19.760;2022-09-06T05:56:40;2.50;;;1.60;;
67500;SDS011;54349;52.528;19.760;2022-09-06T05:59:08;2.70;;;1.50;;
67500;SDS011;54349;52.528;19.760;2022-09-06T06:01:36;3.40;;;1.70;;
67500;SDS011;54349;52.528;19.760;2022-09-06T06:04:04;2.60;;;1.50;;
67500;SDS011;54349;52.528;19.760;2022-09-06T06:06:34;2.60;;;1.70;;
67500;SDS011;54349;52.528;19.760;2022-09-06T06:09:02;3.00;;;1.60;;
67500;SDS011;54349;52.528;19.760;2022-09-06T06:11:30;2.30;;;1.50;;
67500;SDS011;54349;52.528;19.760;2022-09-06T06:13:58;2.90;;;1.50;;
67500;SDS011;54349;52.528;19.760;2022-09-06T06:16:27;2.40;;;1.50;;
67500;SDS011;54349;52.528;19.760;2022-09-06T06:18:55;1.60;;;1.40;;
67500;SDS011;54349;52.528;19.760;2022-09-06T06:21:26;4.10;;;1.70;;
67500;SDS011;54349;52.528;19.760;2022-09-06T06:23:58;3.70;;;1.60;;
67500;SDS011;54349;52.528;19.760;2022-09-06T06:26:30;2.40;;;1.60;;
67500;SDS011;54349;52.528;19.760;2022-09-06T06:29:00;2.10;;;1.50;;
67500;SDS011;54349;52.528;19.760;2022-09-06T06:31:30;3.80;;;1.60;;
67500;SDS011;54349;52.528;19.760;2022-09-06T06:33:59;3.30;;;1.60;;
67500;SDS011;54349;52.528;19.760;2022-09-06T06:36:31;3.10;;;1.60;;
67500;SDS011;54349;52.528;19.760;2022-09-06T06:39:03;2.50;;;1.60;;
67500;SDS011;54349;52.528;19.760;2022-09-06T06:41:33;3.40;;;1.70;;
67500;SDS011;54349;52.528;19.760;2022-09-06T06:44:03;2.70;;;1.40;;
67500;SDS011;54349;52.528;19.760;2022-09-06T06:46:37;2.30;;;1.60;;
67500;SDS011;54349;52.528;19.760;2022-09-06T06:49:05;3.90;;;1.70;;
67500;SDS011;54349;52.528;19.760;2022-09-06T06:51:34;3.90;;;1.50;;
67500;SDS011;54349;52.528;19.760;2022-09-06T06:54:04;2.30;;;1.60;;
67500;SDS011;54349;52.528;19.760;2022-09-06T06:56:35;3.30;;;1.60;;
67500;SDS011;54349;52.528;19.760;2022-09-06T06:59:07;2.60;;;1.50;;
67500;SDS011;54349;52.528;19.760;2022-09-06T07:01:36;2.20;;;1.60;;
67500;SDS011;54349;52.528;19.760;2022-09-06T07:04:04;2.50;;;1.50;;
67500;SDS011;54349;52.528;19.760;2022-09-06T07:09:35;3.40;;;1.40;;
67500;SDS011;54349;52.528;19.760;2022-09-06T07:12:23;1.80;;;1.50;;
67500;SDS011;54349;52.528;19.760;2022-09-06T07:14:51;2.60;;;1.50;;
67500;SDS011;54349;52.528;19.760;2022-09-06T07:17:20;2.40;;;1.50;;
67500;SDS011;54349;52.528;19.760;2022-09-06T07:19:48;3.00;;;1.60;;
67500;SDS011;54349;52.528;19.760;2022-09-06T07:22:37;2.20;;;1.30;;
67500;SDS011;54349;52.528;19.760;2022-09-06T07:25:07;2.30;;;1.50;;
67500;SDS011;54349;52.528;19.760;2022-09-06T07:27:36;2.10;;;1.40;;
67500;SDS011;54349;52.528;19.760;2022-09-06T07:30:12;2.80;;;1.50;;
67500;SDS011;54349;52.528;19.760;2022-09-06T07:32:41;4.00;;;1.90;;
67500;SDS011;54349;52.528;19.760;2022-09-06T07:35:09;2.00;;;1.40;;
67500;SDS011;54349;52.528;19.760;2022-09-06T07:37:39;2.40;;;1.60;;
67500;SDS011;54349;52.528;19.760;2022-09-06T07:40:07;2.10;;;1.40;;
67500;SDS011;54349;52.528;19.760;2022-09-06T07:42:37;3.00;;;1.40;;
67500;SDS011;54349;52.528;19.760;2022-09-06T07:45:05;3.00;;;1.50;;
67500;SDS011;54349;52.528;19.760;2022-09-06T07:47:34;3.20;;;1.40;;
67500;SDS011;54349;52.528;19.760;2022-09-06T07:50:23;1.50;;;1.30;;
67500;SDS011;54349;52.528;19.760;2022-09-06T07:53:12;2.30;;;1.40;;
67500;SDS011;54349;52.528;19.760;2022-09-06T07:55:44;2.90;;;1.40;;
67500;SDS011;54349;52.528;19.760;2022-09-06T07:58:12;3.30;;;1.60;;
67500;SDS011;54349;52.528;19.760;2022-09-06T08:00:40;2.20;;;1.50;;
67500;SDS011;54349;52.528;19.760;2022-09-06T08:03:08;2.60;;;1.60;;
67500;SDS011;54349;52.528;19.760;2022-09-06T08:05:37;2.20;;;1.40;;
67500;SDS011;54349;52.528;19.760;2022-09-06T08:08:25;2.80;;;1.30;;
67500;SDS011;54349;52.528;19.760;2022-09-06T08:11:13;2.40;;;1.40;;
67500;SDS011;54349;52.528;19.760;2022-09-06T08:13:42;2.20;;;1.40;;
67500;SDS011;54349;52.528;19.760;2022-09-06T08:16:11;2.30;;;1.40;;
67500;SDS011;54349;52.528;19.760;2022-09-06T08:18:40;2.10;;;1.50;;
67500;SDS011;54349;52.528;19.760;2022-09-06T08:21:13;2.40;;;1.60;;
67500;SDS011;54349;52.528;19.760;2022-09-06T08:23:47;2.40;;;1.40;;
67500;SDS011;54349;52.528;19.760;2022-09-06T08:26:19;3.00;;;1.40;;
67500;SDS011;54349;52.528;19.760;2022-09-06T08:28:57;2.60;;;1.60;;
67500;SDS011;54349;52.528;19.760;2022-09-06T08:31:30;2.60;;;1.50;;
67500;SDS011;54349;52.528;19.760;2022-09-06T08:34:00;2.20;;;1.30;;
67500;SDS011;54349;52.528;19.760;2022-09-06T08:36:29;1.50;;;1.20;;
67500;SDS011;54349;52.528;19.760;2022-09-06T08:39:02;2.40;;;1.40;;
67500;SDS011;54349;52.528;19.760;2022-09-06T08:41:55;3.90;;;1.60;;
67500;SDS011;54349;52.528;19.760;2022-09-06T08:47:23;2.80;;;1.40;;
67500;SDS011;54349;52.528;19.760;2022-09-06T08:49:55;2.20;;;1.40;;
67500;SDS011;54349;52.528;19.760;2022-09-06T08:55:50;1.80;;;1.30;;
67500;SDS011;54349;52.528;19.760;2022-09-06T09:01:13;1.80;;;1.40;;
67500;SDS011;54349;52.528;19.760;2022-09-06T09:03:45;2.50;;;1.30;;
67500;SDS011;54349;52.528;19.760;2022-09-06T09:06:13;2.30;;;1.40;;
67500;SDS011;54349;52.528;19.760;2022-09-06T09:08:56;1.70;;;1.30;;
67500;SDS011;54349;52.528;19.760;2022-09-06T09:11:34;2.70;;;1.50;;
67500;SDS011;54349;52.528;19.760;2022-09-06T09:16:50;2.70;;;1.40;;
67500;SDS011;54349;52.528;19.760;2022-09-06T09:19:19;2.40;;;1.40;;
67500;SDS011;54349;52.528;19.760;2022-09-06T09:21:48;3.10;;;1.30;;
67500;SDS011;54349;52.528;19.760;2022-09-06T09:24:16;2.20;;;1.40;;
67500;SDS011;54349;52.528;19.760;2022-09-06T09:26:56;2.70;;;1.40;;
67500;SDS011;54349;52.528;19.760;2022-09-06T09:29:30;1.50;;;1.30;;
67500;SDS011;54349;52.528;19.760;2022-09-06T09:32:03;2.10;;;1.20;;
67500;SDS011;54349;52.528;19.760;2022-09-06T09:34:34;2.40;;;1.40;;
67500;SDS011;54349;52.528;19.760;2022-09-06T09:37:10;2.40;;;1.50;;
67500;SDS011;54349;52.528;19.760;2022-09-06T09:45:01;1.90;;;1.30;;
67500;SDS011;54349;52.528;19.760;2022-09-06T09:47:49;2.40;;;1.20;;
67500;SDS011;54349;52.528;19.760;2022-09-06T09:50:32;2.30;;;1.50;;
67500;SDS011;54349;52.528;19.760;2022-09-06T09:53:17;2.20;;;1.20;;
67500;SDS011;54349;52.528;19.760;2022-09-06T09:55:55;2.20;;;1.20;;
67500;SDS011;54349;52.528;19.760;2022-09-06T09:58:32;1.50;;;1.40;;
67500;SDS011;54349;52.528;19.760;2022-09-06T10:01:31;2.70;;;1.40;;
67500;SDS011;54349;52.528;19.760;2022-09-06T10:04:05;1.50;;;1.30;;
67500;SDS011;54349;52.528;19.760;2022-09-06T10:07:28;1.50;;;1.20;;
67500;SDS011;54349;52.528;19.760;2022-09-06T10:10:06;1.20;;;1.10;;
67500;SDS011;54349;52.528;19.760;2022-09-06T10:12:40;1.70;;;1.30;;
67500;SDS011;54349;52.528;19.760;2022-09-06T10:15:11;3.20;;;1.30;;
67500;SDS011;54349;52.528;19.760;2022-09-06T10:17:59;2.20;;;1.40;;
67500;SDS011;54349;52.528;19.760;2022-09-06T10:20:38;1.40;;;1.30;;
67500;SDS011;54349;52.528;19.760;2022-09-06T10:26:58;2.70;;;1.40;;
67500;SDS011;54349;52.528;19.760;2022-09-06T10:29:39;2.50;;;1.30;;
67500;SDS011;54349;52.528;19.760;2022-09-06T10:32:28;1.80;;;1.20;;
67500;SDS011;54349;52.528;19.760;2022-09-06T10:35:21;2.00;;;1.30;;
67500;SDS011;54349;52.528;19.760;2022-09-06T10:41:35;1.50;;;1.30;;
67500;SDS011;54349;52.528;19.760;2022-09-06T10:44:27;1.90;;;1.30;;
67500;SDS011;54349;52.528;19.760;2022-09-06T10:47:13;1.30;;;1.10;;
67500;SDS011;54349;52.528;19.760;2022-09-06T10:49:51;1.40;;;1.20;;
67500;SDS011;54349;52.528;19.760;2022-09-06T10:52:33;2.30;;;1.30;;
67500;SDS011;54349;52.528;19.760;2022-09-06T10:55:08;2.00;;;1.10;;
67500;SDS011;54349;52.528;19.760;2022-09-06T10:57:54;1.30;;;1.20;;
67500;SDS011;54349;52.528;19.760;2022-09-06T11:00:44;2.00;;;1.20;;
67500;SDS011;54349;52.528;19.760;2022-09-06T11:03:26;1.50;;;1.30;;
67500;SDS011;54349;52.528;19.760;2022-09-06T11:06:20;2.00;;;1.20;;
67500;SDS011;54349;52.528;19.760;2022-09-06T11:09:34;1.80;;;1.40;;
67500;SDS011;54349;52.528;19.760;2022-09-06T11:12:23;1.20;;;1.10;;
67500;SDS011;54349;52.528;19.760;2022-09-06T11:15:01;1.50;;;1.30;;
67500;SDS011;54349;52.528;19.760;2022-09-06T11:27:26;1.30;;;1.20;;
67500;SDS011;54349;52.528;19.760;2022-09-06T11:30:12;1.00;;;1.00;;
67500;SDS011;54349;52.528;19.760;2022-09-06T11:32:45;1.50;;;1.40;;
67500;SDS011;54349;52.528;19.760;2022-09-06T11:38:19;1.30;;;1.20;;
67500;SDS011;54349;52.528;19.760;2022-09-06T11:40:57;1.20;;;1.10;;
67500;SDS011;54349;52.528;19.760;2022-09-06T11:52:00;1.50;;;1.10;;
67500;SDS011;54349;52.528;19.760;2022-09-06T11:54:37;1.30;;;1.20;;
67500;SDS011;54349;52.528;19.760;2022-09-06T11:57:16;1.30;;;1.20;;
67500;SDS011;54349;52.528;19.760;2022-09-06T11:59:58;1.60;;;1.30;;
67500;SDS011;54349;52.528;19.760;2022-09-06T12:02:40;1.30;;;1.20;;
67500;SDS011;54349;52.528;19.760;2022-09-06T12:05:14;1.40;;;1.10;;
67500;SDS011;54349;52.528;19.760;2022-09-06T12:10:57;1.70;;;1.20;;
67500;SDS011;54349;52.528;19.760;2022-09-06T12:13:39;1.70;;;1.40;;
67500;SDS011;54349;52.528;19.760;2022-09-06T12:16:15;1.90;;;1.30;;
67500;SDS011;54349;52.528;19.760;2022-09-06T12:21:41;1.20;;;1.10;;
67500;SDS011;54349;52.528;19.760;2022-09-06T12:27:16;1.30;;;1.00;;
67500;SDS011;54349;52.528;19.760;2022-09-06T12:30:00;1.60;;;1.20;;
67500;SDS011;54349;52.528;19.760;2022-09-06T12:32:48;1.60;;;1.10;;
67500;SDS011;54349;52.528;19.760;2022-09-06T12:35:24;1.40;;;1.10;;
67500;SDS011;54349;52.528;19.760;2022-09-06T12:38:22;1.10;;;1.00;;
67500;SDS011;54349;52.528;19.760;2022-09-06T12:43:25;2.10;;;1.30;;
67500;SDS011;54349;52.528;19.760;2022-09-06T12:45:53;1.80;;;1.30;;
67500;SDS011;54349;52.528;19.760;2022-09-06T12:48:30;1.30;;;1.10;;
67500;SDS011;54349;52.528;19.760;2022-09-06T12:51:05;1.80;;;1.20;;
67500;SDS011;54349;52.528;19.760;2022-09-06T12:53:35;1.20;;;1.10;;
67500;SDS011;54349;52.528;19.760;2022-09-06T12:56:07;1.00;;;1.00;;
67500;SDS011;54349;52.528;19.760;2022-09-06T12:58:39;1.60;;;1.20;;
67500;SDS011;54349;52.528;19.760;2022-09-06T13:01:32;1.50;;;1.20;;
67500;SDS011;54349;52.528;19.760;2022-09-06T13:04:32;1.20;;;1.10;;
67500;SDS011;54349;52.528;19.760;2022-09-06T13:07:05;1.40;;;1.10;;
67500;SDS011;54349;52.528;19.760;2022-09-06T13:09:40;1.50;;;1.20;;
67500;SDS011;54349;52.528;19.760;2022-09-06T13:15:06;2.00;;;1.20;;
67500;SDS011;54349;52.528;19.760;2022-09-06T13:17:39;1.50;;;1.10;;
67500;SDS011;54349;52.528;19.760;2022-09-06T13:20:23;1.40;;;1.30;;
67500;SDS011;54349;52.528;19.760;2022-09-06T13:23:10;1.90;;;1.30;;
67500;SDS011;54349;52.528;19.760;2022-09-06T13:25:48;1.70;;;1.10;;
67500;SDS011;54349;52.528;19.760;2022-09-06T13:28:29;1.00;;;0.90;;
67500;SDS011;54349;52.528;19.760;2022-09-06T13:33:44;1.30;;;1.10;;
67500;SDS011;54349;52.528;19.760;2022-09-06T13:36:29;1.60;;;1.10;;
67500;SDS011;54349;52.528;19.760;2022-09-06T13:38:59;1.10;;;1.00;;
67500;SDS011;54349;52.528;19.760;2022-09-06T13:41:38;1.10;;;1.00;;
67500;SDS011;54349;52.528;19.760;2022-09-06T13:46:41;1.50;;;1.10;;
67500;SDS011;54349;52.528;19.760;2022-09-06T13:49:10;1.60;;;1.20;;
67500;SDS011;54349;52.528;19.760;2022-09-06T13:51:40;1.40;;;1.10;;
67500;SDS011;54349;52.528;19.760;2022-09-06T13:54:11;1.10;;;1.00;;
67500;SDS011;54349;52.528;19.760;2022-09-06T13:56:41;1.20;;;1.10;;
67500;SDS011;54349;52.528;19.760;2022-09-06T13:59:11;1.80;;;1.20;;
67500;SDS011;54349;52.528;19.760;2022-09-06T14:01:41;0.90;;;0.90;;
67500;SDS011;54349;52.528;19.760;2022-09-06T14:04:16;1.10;;;1.10;;
67500;SDS011;54349;52.528;19.760;2022-09-06T14:06:48;1.20;;;1.10;;
67500;SDS011;54349;52.528;19.760;2022-09-06T14:09:16;1.30;;;1.00;;
67500;SDS011;54349;52.528;19.760;2022-09-06T14:15:20;1.00;;;1.00;;
67500;SDS011;54349;52.528;19.760;2022-09-06T14:17:48;1.40;;;1.30;;
67500;SDS011;54349;52.528;19.760;2022-09-06T14:20:16;1.80;;;1.20;;
67500;SDS011;54349;52.528;19.760;2022-09-06T14:22:46;1.50;;;1.10;;
67500;SDS011;54349;52.528;19.760;2022-09-06T14:25:14;1.80;;;1.20;;
67500;SDS011;54349;52.528;19.760;2022-09-06T14:27:43;1.40;;;1.10;;
67500;SDS011;54349;52.528;19.760;2022-09-06T14:30:14;1.30;;;1.20;;
67500;SDS011;54349;52.528;19.760;2022-09-06T14:32:42;1.20;;;1.10;;
67500;SDS011;54349;52.528;19.760;2022-09-06T14:35:10;1.00;;;1.00;;
67500;SDS011;54349;52.528;19.760;2022-09-06T14:37:39;1.10;;;1.00;;
67500;SDS011;54349;52.528;19.760;2022-09-06T14:40:22;0.90;;;0.90;;
67500;SDS011;54349;52.528;19.760;2022-09-06T14:42:51;1.10;;;1.00;;
67500;SDS011;54349;52.528;19.760;2022-09-06T14:45:19;1.70;;;1.20;;
67500;SDS011;54349;52.528;19.760;2022-09-06T14:47:48;1.20;;;1.00;;
67500;SDS011;54349;52.528;19.760;2022-09-06T14:50:16;1.20;;;1.10;;
67500;SDS011;54349;52.528;19.760;2022-09-06T14:52:45;1.30;;;1.20;;
67500;SDS011;54349;52.528;19.760;2022-09-06T14:55:13;1.10;;;1.00;;
67500;SDS011;54349;52.528;19.760;2022-09-06T14:57:42;1.20;;;1.10;;
67500;SDS011;54349;52.528;19.760;2022-09-06T15:00:11;1.20;;;1.10;;
67500;SDS011;54349;52.528;19.760;2022-09-06T15:02:39;1.30;;;1.10;;
67500;SDS011;54349;52.528;19.760;2022-09-06T15:05:08;1.90;;;1.10;;
67500;SDS011;54349;52.528;19.760;2022-09-06T15:07:37;1.20;;;1.10;;
67500;SDS011;54349;52.528;19.760;2022-09-06T15:10:07;0.90;;;0.90;;
67500;SDS011;54349;52.528;19.760;2022-09-06T15:12:36;1.40;;;0.90;;
67500;SDS011;54349;52.528;19.760;2022-09-06T15:15:05;1.00;;;1.00;;
67500;SDS011;54349;52.528;19.760;2022-09-06T15:17:34;1.80;;;1.10;;
67500;SDS011;54349;52.528;19.760;2022-09-06T15:20:04;1.10;;;1.10;;
67500;SDS011;54349;52.528;19.760;2022-09-06T15:22:33;1.20;;;1.00;;
67500;SDS011;54349;52.528;19.760;2022-09-06T15:25:02;1.00;;;0.90;;
67500;SDS011;54349;52.528;19.760;2022-09-06T15:27:31;1.40;;;1.00;;
67500;SDS011;54349;52.528;19.760;2022-09-06T15:30:00;1.70;;;1.00;;
67500;SDS011;54349;52.528;19.760;2022-09-06T15:32:28;1.20;;;1.10;;
67500;SDS011;54349;52.528;19.760;2022-09-06T15:34:56;1.10;;;1.00;;
67500;SDS011;54349;52.528;19.760;2022-09-06T15:37:31;1.00;;;1.00;;
67500;SDS011;54349;52.528;19.760;2022-09-06T15:40:00;1.10;;;1.00;;
67500;SDS011;54349;52.528;19.760;2022-09-06T15:42:29;2.10;;;1.20;;
67500;SDS011;54349;52.528;19.760;2022-09-06T15:44:57;1.30;;;1.00;;
67500;SDS011;54349;52.528;19.760;2022-09-06T15:47:26;1.20;;;1.10;;
67500;SDS011;54349;52.528;19.760;2022-09-06T15:49:54;1.20;;;1.10;;
67500;SDS011;54349;52.528;19.760;2022-09-06T15:52:22;1.00;;;0.90;;
67500;SDS011;54349;52.528;19.760;2022-09-06T15:54:50;1.30;;;1.20;;
67500;SDS011;54349;52.528;19.760;2022-09-06T15:57:37;1.40;;;1.10;;
67500;SDS011;54349;52.528;19.760;2022-09-06T16:00:06;1.00;;;1.00;;
67500;SDS011;54349;52.528;19.760;2022-09-06T16:02:35;1.20;;;1.10;;
67500;SDS011;54349;52.528;19.760;2022-09-06T16:05:04;1.30;;;1.00;;
67500;SDS011;54349;52.528;19.760;2022-09-06T16:07:33;1.00;;;0.90;;
67500;SDS011;54349;52.528;19.760;2022-09-06T16:10:05;1.00;;;1.00;;
67500;SDS011;54349;52.528;19.760;2022-09-06T16:12:33;0.90;;;0.90;;
67500;SDS011;54349;52.528;19.760;2022-09-06T16:15:01;1.80;;;1.10;;
67500;SDS011;54349;52.528;19.760;2022-09-06T16:17:31;0.80;;;0.80;;
67500;SDS011;54349;52.528;19.760;2022-09-06T16:19:59;1.00;;;1.00;;
67500;SDS011;54349;52.528;19.760;2022-09-06T16:22:28;1.20;;;1.10;;
67500;SDS011;54349;52.528;19.760;2022-09-06T16:24:57;1.80;;;1.20;;
67500;SDS011;54349;52.528;19.760;2022-09-06T16:27:25;1.10;;;1.00;;
67500;SDS011;54349;52.528;19.760;2022-09-06T16:29:54;1.10;;;1.00;;
67500;SDS011;54349;52.528;19.760;2022-09-06T16:32:22;1.20;;;1.10;;
67500;SDS011;54349;52.528;19.760;2022-09-06T16:34:50;1.20;;;1.10;;
67500;SDS011;54349;52.528;19.760;2022-09-06T16:37:18;0.90;;;0.90;;
67500;SDS011;54349;52.528;19.760;2022-09-06T16:39:47;1.20;;;1.10;;
67500;SDS011;54349;52.528;19.760;2022-09-06T16:42:15;1.30;;;1.10;;
67500;SDS011;54349;52.528;19.760;2022-09-06T16:44:43;1.10;;;0.90;;
67500;SDS011;54349;52.528;19.760;2022-09-06T16:47:11;1.20;;;0.90;;